Terminal Aerodrome Forecast
Issued by NWS

Home | Current Version | Previous Version | Text Only | Print | Product List | Glossary On
Versions: 1 2 3 4 5 6 7 8 9 10 11 12 13 14 15 16 17 18 19 20
468
FTUS44 KLZK 241720
TAFBPK
TAF
KBPK 241720Z 2418/2518 21015G28KT P6SM VCTS SCT025 BKN040CB BKN100
      TEMPO 2418/2422 -TSRA
     FM242200 18015G28KT P6SM -TSRA BKN035CB OVC050
      TEMPO 2423/2503 VRB15G30KT 2SM TSRA BR OVC020CB
     FM250300 19012G22KT P6SM VCTS SCT020CB OVC050
     FM251200 25012G18KT P6SM VCSH OVC050 PROB30 2512/2518 5SM -SHRA
      BR BKN025=

USA.gov is the U.S. government's official web portal to all federal, state and local government web resources and services.